sensor_id;sensor_type;location;lat;lon;timestamp;P1;durP1;ratioP1;P2;durP2;ratioP2
22652;SDS011;11493;43.344;26.226;2022-08-21T00:02:25;16.65;;;6.32;;
22652;SDS011;11493;43.344;26.226;2022-08-21T00:04:54;12.82;;;7.35;;
22652;SDS011;11493;43.344;26.226;2022-08-21T00:07:23;17.13;;;6.75;;
22652;SDS011;11493;43.344;26.226;2022-08-21T00:09:51;17.95;;;6.20;;
22652;SDS011;11493;43.344;26.226;2022-08-21T00:12:19;14.68;;;6.25;;
22652;SDS011;11493;43.344;26.226;2022-08-21T00:14:47;10.98;;;6.72;;
22652;SDS011;11493;43.344;26.226;2022-08-21T00:17:15;19.30;;;8.55;;
22652;SDS011;11493;43.344;26.226;2022-08-21T00:19:42;17.13;;;7.43;;
22652;SDS011;11493;43.344;26.226;2022-08-21T00:22:13;11.32;;;6.68;;
22652;SDS011;11493;43.344;26.226;2022-08-21T00:24:40;8.27;;;6.20;;
22652;SDS011;11493;43.344;26.226;2022-08-21T00:27:09;10.70;;;7.47;;
22652;SDS011;11493;43.344;26.226;2022-08-21T00:29:36;11.63;;;7.30;;
22652;SDS011;11493;43.344;26.226;2022-08-21T00:32:04;9.57;;;5.95;;
22652;SDS011;11493;43.344;26.226;2022-08-21T00:34:31;7.97;;;6.00;;
22652;SDS011;11493;43.344;26.226;2022-08-21T00:36:58;10.85;;;7.55;;
22652;SDS011;11493;43.344;26.226;2022-08-21T00:39:26;10.32;;;6.78;;
22652;SDS011;11493;43.344;26.226;2022-08-21T00:42:02;15.13;;;6.22;;
22652;SDS011;11493;43.344;26.226;2022-08-21T00:44:31;10.32;;;5.85;;
22652;SDS011;11493;43.344;26.226;2022-08-21T00:47:02;8.05;;;6.35;;
22652;SDS011;11493;43.344;26.226;2022-08-21T00:51:58;11.70;;;6.80;;
22652;SDS011;11493;43.344;26.226;2022-08-21T00:54:28;14.48;;;6.72;;
22652;SDS011;11493;43.344;26.226;2022-08-21T00:57:02;16.88;;;7.30;;
22652;SDS011;11493;43.344;26.226;2022-08-21T00:59:34;9.52;;;7.05;;
22652;SDS011;11493;43.344;26.226;2022-08-21T01:02:05;14.00;;;7.10;;
22652;SDS011;11493;43.344;26.226;2022-08-21T01:04:34;9.60;;;7.07;;
22652;SDS011;11493;43.344;26.226;2022-08-21T01:07:02;14.00;;;6.68;;
22652;SDS011;11493;43.344;26.226;2022-08-21T01:09:29;11.25;;;6.38;;
22652;SDS011;11493;43.344;26.226;2022-08-21T01:11:58;18.75;;;6.95;;
22652;SDS011;11493;43.344;26.226;2022-08-21T01:14:28;9.02;;;7.10;;
22652;SDS011;11493;43.344;26.226;2022-08-21T01:16:58;12.38;;;6.93;;
22652;SDS011;11493;43.344;26.226;2022-08-21T01:19:27;10.77;;;8.10;;
22652;SDS011;11493;43.344;26.226;2022-08-21T01:21:54;8.90;;;6.93;;
22652;SDS011;11493;43.344;26.226;2022-08-21T01:24:22;7.35;;;6.65;;
22652;SDS011;11493;43.344;26.226;2022-08-21T01:26:50;12.95;;;6.45;;
22652;SDS011;11493;43.344;26.226;2022-08-21T01:29:34;16.13;;;6.93;;
22652;SDS011;11493;43.344;26.226;2022-08-21T01:32:11;12.07;;;6.45;;
22652;SDS011;11493;43.344;26.226;2022-08-21T01:34:44;11.15;;;6.57;;
22652;SDS011;11493;43.344;26.226;2022-08-21T01:37:14;13.20;;;6.53;;
22652;SDS011;11493;43.344;26.226;2022-08-21T01:39:47;19.38;;;7.68;;
22652;SDS011;11493;43.344;26.226;2022-08-21T01:42:15;10.57;;;6.93;;
22652;SDS011;11493;43.344;26.226;2022-08-21T01:44:43;13.07;;;6.03;;
22652;SDS011;11493;43.344;26.226;2022-08-21T01:47:11;12.02;;;5.88;;
22652;SDS011;11493;43.344;26.226;2022-08-21T01:49:43;6.47;;;5.88;;
22652;SDS011;11493;43.344;26.226;2022-08-21T01:52:11;15.05;;;5.95;;
22652;SDS011;11493;43.344;26.226;2022-08-21T01:54:38;8.98;;;6.00;;
22652;SDS011;11493;43.344;26.226;2022-08-21T01:57:07;8.60;;;5.80;;
22652;SDS011;11493;43.344;26.226;2022-08-21T01:59:35;13.40;;;6.10;;
22652;SDS011;11493;43.344;26.226;2022-08-21T02:02:04;12.43;;;6.32;;
22652;SDS011;11493;43.344;26.226;2022-08-21T02:04:35;9.18;;;5.88;;
22652;SDS011;11493;43.344;26.226;2022-08-21T02:07:03;10.80;;;5.97;;
22652;SDS011;11493;43.344;26.226;2022-08-21T02:09:33;11.68;;;5.82;;
22652;SDS011;11493;43.344;26.226;2022-08-21T02:12:05;11.20;;;6.18;;
22652;SDS011;11493;43.344;26.226;2022-08-21T02:14:33;10.65;;;7.65;;
22652;SDS011;11493;43.344;26.226;2022-08-21T02:17:00;13.23;;;7.78;;
22652;SDS011;11493;43.344;26.226;2022-08-21T02:19:35;9.98;;;6.30;;
22652;SDS011;11493;43.344;26.226;2022-08-21T02:24:41;8.02;;;6.43;;
22652;SDS011;11493;43.344;26.226;2022-08-21T02:27:22;10.13;;;7.38;;
22652;SDS011;11493;43.344;26.226;2022-08-21T02:29:55;11.82;;;7.10;;
22652;SDS011;11493;43.344;26.226;2022-08-21T02:32:24;12.88;;;6.70;;
22652;SDS011;11493;43.344;26.226;2022-08-21T02:34:52;11.82;;;7.25;;
22652;SDS011;11493;43.344;26.226;2022-08-21T02:37:20;11.55;;;6.72;;
22652;SDS011;11493;43.344;26.226;2022-08-21T02:39:48;10.10;;;7.47;;
22652;SDS011;11493;43.344;26.226;2022-08-21T02:42:15;11.63;;;7.00;;
22652;SDS011;11493;43.344;26.226;2022-08-21T02:44:43;12.90;;;7.15;;
22652;SDS011;11493;43.344;26.226;2022-08-21T02:47:11;12.38;;;7.13;;
22652;SDS011;11493;43.344;26.226;2022-08-21T02:49:41;12.32;;;7.00;;
22652;SDS011;11493;43.344;26.226;2022-08-21T02:52:09;14.20;;;7.03;;
22652;SDS011;11493;43.344;26.226;2022-08-21T02:54:38;10.48;;;8.15;;
22652;SDS011;11493;43.344;26.226;2022-08-21T02:57:05;14.45;;;7.88;;
22652;SDS011;11493;43.344;26.226;2022-08-21T02:59:32;12.38;;;7.43;;
22652;SDS011;11493;43.344;26.226;2022-08-21T03:02:00;14.50;;;7.75;;
22652;SDS011;11493;43.344;26.226;2022-08-21T03:04:27;13.48;;;8.20;;
22652;SDS011;11493;43.344;26.226;2022-08-21T03:06:55;18.67;;;7.90;;
22652;SDS011;11493;43.344;26.226;2022-08-21T03:09:22;13.88;;;7.95;;
22652;SDS011;11493;43.344;26.226;2022-08-21T03:11:50;11.40;;;7.65;;
22652;SDS011;11493;43.344;26.226;2022-08-21T03:14:19;11.68;;;7.65;;
22652;SDS011;11493;43.344;26.226;2022-08-21T03:16:47;12.90;;;7.03;;
22652;SDS011;11493;43.344;26.226;2022-08-21T03:19:15;14.43;;;7.07;;
22652;SDS011;11493;43.344;26.226;2022-08-21T03:21:42;11.35;;;8.05;;
22652;SDS011;11493;43.344;26.226;2022-08-21T03:24:10;9.50;;;7.55;;
22652;SDS011;11493;43.344;26.226;2022-08-21T03:26:37;11.27;;;7.50;;
22652;SDS011;11493;43.344;26.226;2022-08-21T03:29:07;15.82;;;8.35;;
22652;SDS011;11493;43.344;26.226;2022-08-21T03:31:34;13.20;;;8.35;;
22652;SDS011;11493;43.344;26.226;2022-08-21T03:34:02;17.60;;;7.40;;
22652;SDS011;11493;43.344;26.226;2022-08-21T03:36:30;10.90;;;7.35;;
22652;SDS011;11493;43.344;26.226;2022-08-21T03:38:58;15.93;;;7.72;;
22652;SDS011;11493;43.344;26.226;2022-08-21T03:41:25;14.10;;;7.63;;
22652;SDS011;11493;43.344;26.226;2022-08-21T03:43:53;17.15;;;7.88;;
22652;SDS011;11493;43.344;26.226;2022-08-21T03:46:20;21.50;;;8.63;;
22652;SDS011;11493;43.344;26.226;2022-08-21T03:48:51;10.75;;;7.75;;
22652;SDS011;11493;43.344;26.226;2022-08-21T03:51:19;8.55;;;7.43;;
22652;SDS011;11493;43.344;26.226;2022-08-21T03:53:46;14.77;;;7.60;;
22652;SDS011;11493;43.344;26.226;2022-08-21T03:56:13;13.82;;;8.27;;
22652;SDS011;11493;43.344;26.226;2022-08-21T03:58:42;14.43;;;9.82;;
22652;SDS011;11493;43.344;26.226;2022-08-21T04:01:11;15.20;;;10.02;;
22652;SDS011;11493;43.344;26.226;2022-08-21T04:03:44;20.45;;;11.85;;
22652;SDS011;11493;43.344;26.226;2022-08-21T04:06:13;24.58;;;10.23;;
22652;SDS011;11493;43.344;26.226;2022-08-21T04:08:43;11.10;;;8.38;;
22652;SDS011;11493;43.344;26.226;2022-08-21T04:11:18;14.23;;;8.23;;
22652;SDS011;11493;43.344;26.226;2022-08-21T04:13:46;15.57;;;8.20;;
22652;SDS011;11493;43.344;26.226;2022-08-21T04:16:15;12.80;;;9.07;;
22652;SDS011;11493;43.344;26.226;2022-08-21T04:18:42;15.93;;;8.02;;
22652;SDS011;11493;43.344;26.226;2022-08-21T04:21:10;13.32;;;8.10;;
22652;SDS011;11493;43.344;26.226;2022-08-21T04:23:39;9.93;;;8.88;;
22652;SDS011;11493;43.344;26.226;2022-08-21T04:26:06;15.35;;;7.97;;
22652;SDS011;11493;43.344;26.226;2022-08-21T04:28:33;12.52;;;8.00;;
22652;SDS011;11493;43.344;26.226;2022-08-21T04:31:00;16.58;;;8.43;;
22652;SDS011;11493;43.344;26.226;2022-08-21T04:33:33;13.68;;;8.38;;
22652;SDS011;11493;43.344;26.226;2022-08-21T04:36:02;20.58;;;8.82;;
22652;SDS011;11493;43.344;26.226;2022-08-21T04:38:33;10.60;;;7.57;;
22652;SDS011;11493;43.344;26.226;2022-08-21T04:41:08;12.90;;;8.02;;
22652;SDS011;11493;43.344;26.226;2022-08-21T04:43:36;11.73;;;8.00;;
22652;SDS011;11493;43.344;26.226;2022-08-21T04:46:05;11.13;;;7.78;;
22652;SDS011;11493;43.344;26.226;2022-08-21T04:48:39;15.88;;;8.63;;
22652;SDS011;11493;43.344;26.226;2022-08-21T04:51:08;12.00;;;8.68;;
22652;SDS011;11493;43.344;26.226;2022-08-21T04:56:25;11.88;;;7.68;;
22652;SDS011;11493;43.344;26.226;2022-08-21T04:59:04;12.13;;;8.70;;
22652;SDS011;11493;43.344;26.226;2022-08-21T05:01:42;12.15;;;8.30;;
22652;SDS011;11493;43.344;26.226;2022-08-21T05:04:13;12.18;;;8.07;;
22652;SDS011;11493;43.344;26.226;2022-08-21T05:06:44;10.98;;;8.13;;
22652;SDS011;11493;43.344;26.226;2022-08-21T05:09:15;12.77;;;8.73;;
22652;SDS011;11493;43.344;26.226;2022-08-21T05:11:45;10.77;;;8.27;;
22652;SDS011;11493;43.344;26.226;2022-08-21T05:14:13;10.82;;;7.85;;
22652;SDS011;11493;43.344;26.226;2022-08-21T05:16:40;14.77;;;8.38;;
22652;SDS011;11493;43.344;26.226;2022-08-21T05:19:08;12.52;;;8.00;;
22652;SDS011;11493;43.344;26.226;2022-08-21T05:21:36;14.45;;;8.70;;
22652;SDS011;11493;43.344;26.226;2022-08-21T05:24:06;12.55;;;7.65;;
22652;SDS011;11493;43.344;26.226;2022-08-21T05:26:33;10.55;;;8.55;;
22652;SDS011;11493;43.344;26.226;2022-08-21T05:29:12;9.18;;;7.47;;
22652;SDS011;11493;43.344;26.226;2022-08-21T05:31:42;14.27;;;8.13;;
22652;SDS011;11493;43.344;26.226;2022-08-21T05:34:12;9.93;;;8.18;;
22652;SDS011;11493;43.344;26.226;2022-08-21T05:36:43;15.02;;;8.52;;
22652;SDS011;11493;43.344;26.226;2022-08-21T05:39:10;16.27;;;8.45;;
22652;SDS011;11493;43.344;26.226;2022-08-21T05:41:41;10.32;;;8.18;;
22652;SDS011;11493;43.344;26.226;2022-08-21T05:44:08;10.43;;;8.48;;
22652;SDS011;11493;43.344;26.226;2022-08-21T05:46:36;9.82;;;7.60;;
22652;SDS011;11493;43.344;26.226;2022-08-21T05:49:04;8.07;;;7.18;;
22652;SDS011;11493;43.344;26.226;2022-08-21T05:51:31;11.98;;;8.25;;
22652;SDS011;11493;43.344;26.226;2022-08-21T05:53:58;16.45;;;8.07;;
22652;SDS011;11493;43.344;26.226;2022-08-21T05:56:26;15.23;;;7.22;;
22652;SDS011;11493;43.344;26.226;2022-08-21T05:58:53;13.38;;;7.78;;
22652;SDS011;11493;43.344;26.226;2022-08-21T06:01:20;12.13;;;7.55;;
22652;SDS011;11493;43.344;26.226;2022-08-21T06:03:49;14.45;;;7.38;;
22652;SDS011;11493;43.344;26.226;2022-08-21T06:06:17;14.30;;;7.97;;
22652;SDS011;11493;43.344;26.226;2022-08-21T06:08:44;12.05;;;8.07;;
22652;SDS011;11493;43.344;26.226;2022-08-21T06:11:11;14.05;;;7.78;;
22652;SDS011;11493;43.344;26.226;2022-08-21T06:13:39;15.55;;;7.25;;
22652;SDS011;11493;43.344;26.226;2022-08-21T06:16:12;12.02;;;6.97;;
22652;SDS011;11493;43.344;26.226;2022-08-21T06:18:42;15.27;;;7.75;;
22652;SDS011;11493;43.344;26.226;2022-08-21T06:21:11;15.63;;;7.35;;
22652;SDS011;11493;43.344;26.226;2022-08-21T06:23:39;10.43;;;6.53;;
22652;SDS011;11493;43.344;26.226;2022-08-21T06:26:06;10.40;;;7.00;;
22652;SDS011;11493;43.344;26.226;2022-08-21T06:28:35;13.32;;;7.05;;
22652;SDS011;11493;43.344;26.226;2022-08-21T06:31:10;11.43;;;6.35;;
22652;SDS011;11493;43.344;26.226;2022-08-21T06:33:39;9.30;;;6.75;;
22652;SDS011;11493;43.344;26.226;2022-08-21T06:36:06;12.27;;;7.00;;
22652;SDS011;11493;43.344;26.226;2022-08-21T06:38:35;13.63;;;6.60;;
22652;SDS011;11493;43.344;26.226;2022-08-21T06:41:05;12.20;;;6.63;;
22652;SDS011;11493;43.344;26.226;2022-08-21T06:43:35;12.45;;;6.30;;
22652;SDS011;11493;43.344;26.226;2022-08-21T06:46:06;12.32;;;7.68;;
22652;SDS011;11493;43.344;26.226;2022-08-21T06:48:34;10.10;;;7.38;;
22652;SDS011;11493;43.344;26.226;2022-08-21T06:51:01;9.25;;;6.55;;
22652;SDS011;11493;43.344;26.226;2022-08-21T06:53:29;9.18;;;7.10;;
22652;SDS011;11493;43.344;26.226;2022-08-21T06:55:57;11.40;;;6.97;;
22652;SDS011;11493;43.344;26.226;2022-08-21T06:58:24;18.38;;;6.50;;
22652;SDS011;11493;43.344;26.226;2022-08-21T07:00:52;9.10;;;6.60;;
22652;SDS011;11493;43.344;26.226;2022-08-21T07:03:27;16.83;;;6.30;;
22652;SDS011;11493;43.344;26.226;2022-08-21T07:05:57;14.98;;;6.78;;
22652;SDS011;11493;43.344;26.226;2022-08-21T07:08:25;13.27;;;6.75;;
22652;SDS011;11493;43.344;26.226;2022-08-21T07:10:58;9.55;;;6.28;;
22652;SDS011;11493;43.344;26.226;2022-08-21T07:13:27;12.75;;;6.18;;
22652;SDS011;11493;43.344;26.226;2022-08-21T07:15:54;16.92;;;6.30;;
22652;SDS011;11493;43.344;26.226;2022-08-21T07:18:28;13.70;;;5.95;;
22652;SDS011;11493;43.344;26.226;2022-08-21T07:20:56;13.40;;;6.75;;
22652;SDS011;11493;43.344;26.226;2022-08-21T07:23:44;18.25;;;6.88;;
22652;SDS011;11493;43.344;26.226;2022-08-21T07:26:13;13.63;;;6.15;;
22652;SDS011;11493;43.344;26.226;2022-08-21T07:28:43;21.70;;;6.43;;
22652;SDS011;11493;43.344;26.226;2022-08-21T07:31:11;20.80;;;6.85;;
22652;SDS011;11493;43.344;26.226;2022-08-21T07:33:42;16.73;;;6.10;;
22652;SDS011;11493;43.344;26.226;2022-08-21T07:36:10;11.90;;;5.70;;
22652;SDS011;11493;43.344;26.226;2022-08-21T07:38:38;9.02;;;5.53;;
22652;SDS011;11493;43.344;26.226;2022-08-21T07:41:14;23.10;;;5.97;;
22652;SDS011;11493;43.344;26.226;2022-08-21T07:43:43;6.97;;;5.45;;
22652;SDS011;11493;43.344;26.226;2022-08-21T07:46:12;17.60;;;6.82;;
22652;SDS011;11493;43.344;26.226;2022-08-21T07:48:40;19.30;;;6.75;;
22652;SDS011;11493;43.344;26.226;2022-08-21T07:51:09;31.55;;;6.18;;
22652;SDS011;11493;43.344;26.226;2022-08-21T07:53:38;17.23;;;6.07;;
22652;SDS011;11493;43.344;26.226;2022-08-21T07:56:06;15.75;;;6.43;;
22652;SDS011;11493;43.344;26.226;2022-08-21T07:58:35;12.20;;;5.43;;
22652;SDS011;11493;43.344;26.226;2022-08-21T08:01:02;13.18;;;5.88;;
22652;SDS011;11493;43.344;26.226;2022-08-21T08:03:29;10.75;;;5.65;;
22652;SDS011;11493;43.344;26.226;2022-08-21T08:05:57;15.48;;;5.50;;
22652;SDS011;11493;43.344;26.226;2022-08-21T08:08:28;10.20;;;5.32;;
22652;SDS011;11493;43.344;26.226;2022-08-21T08:11:02;13.35;;;5.85;;
22652;SDS011;11493;43.344;26.226;2022-08-21T08:13:29;13.80;;;6.38;;
22652;SDS011;11493;43.344;26.226;2022-08-21T08:15:57;11.38;;;5.50;;
22652;SDS011;11493;43.344;26.226;2022-08-21T08:18:25;10.13;;;5.00;;
22652;SDS011;11493;43.344;26.226;2022-08-21T08:20:52;12.10;;;5.32;;
22652;SDS011;11493;43.344;26.226;2022-08-21T08:23:19;11.93;;;5.70;;
22652;SDS011;11493;43.344;26.226;2022-08-21T08:25:46;22.35;;;8.48;;
22652;SDS011;11493;43.344;26.226;2022-08-21T08:28:14;9.70;;;5.15;;
22652;SDS011;11493;43.344;26.226;2022-08-21T08:30:44;15.80;;;5.97;;
22652;SDS011;11493;43.344;26.226;2022-08-21T08:33:12;9.55;;;5.90;;
22652;SDS011;11493;43.344;26.226;2022-08-21T08:35:41;12.02;;;5.45;;
22652;SDS011;11493;43.344;26.226;2022-08-21T08:38:11;14.05;;;5.72;;
22652;SDS011;11493;43.344;26.226;2022-08-21T08:40:45;10.10;;;5.38;;
22652;SDS011;11493;43.344;26.226;2022-08-21T08:43:18;8.85;;;4.60;;
22652;SDS011;11493;43.344;26.226;2022-08-21T08:45:48;12.07;;;5.18;;
22652;SDS011;11493;43.344;26.226;2022-08-21T08:48:39;12.60;;;6.28;;
22652;SDS011;11493;43.344;26.226;2022-08-21T08:51:26;8.95;;;5.20;;
22652;SDS011;11493;43.344;26.226;2022-08-21T08:54:04;17.42;;;8.68;;
22652;SDS011;11493;43.344;26.226;2022-08-21T08:56:36;6.25;;;5.38;;
22652;SDS011;11493;43.344;26.226;2022-08-21T08:59:08;9.50;;;5.00;;
22652;SDS011;11493;43.344;26.226;2022-08-21T09:01:42;9.50;;;5.95;;
22652;SDS011;11493;43.344;26.226;2022-08-21T09:04:10;8.35;;;5.88;;
22652;SDS011;11493;43.344;26.226;2022-08-21T09:14:42;11.10;;;4.35;;
22652;SDS011;11493;43.344;26.226;2022-08-21T09:20:19;12.18;;;4.75;;
22652;SDS011;11493;43.344;26.226;2022-08-21T09:28:43;9.68;;;4.75;;
22652;SDS011;11493;43.344;26.226;2022-08-21T09:31:30;13.00;;;5.35;;
22652;SDS011;11493;43.344;26.226;2022-08-21T09:34:05;12.32;;;4.95;;
22652;SDS011;11493;43.344;26.226;2022-08-21T09:36:44;6.95;;;4.10;;
22652;SDS011;11493;43.344;26.226;2022-08-21T09:39:37;10.75;;;4.53;;
22652;SDS011;11493;43.344;26.226;2022-08-21T09:42:11;12.60;;;5.38;;
22652;SDS011;11493;43.344;26.226;2022-08-21T09:44:39;9.80;;;4.68;;
22652;SDS011;11493;43.344;26.226;2022-08-21T09:47:10;8.75;;;4.93;;
22652;SDS011;11493;43.344;26.226;2022-08-21T09:49:42;8.15;;;4.28;;
22652;SDS011;11493;43.344;26.226;2022-08-21T09:52:20;17.85;;;5.03;;
22652;SDS011;11493;43.344;26.226;2022-08-21T09:54:53;6.43;;;4.72;;
22652;SDS011;11493;43.344;26.226;2022-08-21T09:57:23;11.47;;;4.23;;
22652;SDS011;11493;43.344;26.226;2022-08-21T10:00:19;6.97;;;4.57;;
22652;SDS011;11493;43.344;26.226;2022-08-21T10:02:49;6.97;;;4.75;;
22652;SDS011;11493;43.344;26.226;2022-08-21T10:07:46;10.52;;;5.15;;
22652;SDS011;11493;43.344;26.226;2022-08-21T10:18:40;8.50;;;4.75;;
22652;SDS011;11493;43.344;26.226;2022-08-21T10:23:49;7.00;;;4.80;;
22652;SDS011;11493;43.344;26.226;2022-08-21T10:26:38;8.30;;;4.45;;
22652;SDS011;11493;43.344;26.226;2022-08-21T10:32:29;9.27;;;4.18;;
22652;SDS011;11493;43.344;26.226;2022-08-21T10:38:02;9.55;;;3.88;;
22652;SDS011;11493;43.344;26.226;2022-08-21T10:44:17;6.47;;;3.88;;
22652;SDS011;11493;43.344;26.226;2022-08-21T10:46:59;8.73;;;4.28;;
22652;SDS011;11493;43.344;26.226;2022-08-21T10:58:58;8.77;;;3.45;;
22652;SDS011;11493;43.344;26.226;2022-08-21T11:01:32;11.55;;;4.25;;
22652;SDS011;11493;43.344;26.226;2022-08-21T11:07:19;15.63;;;4.03;;
22652;SDS011;11493;43.344;26.226;2022-08-21T11:09:58;6.53;;;4.20;;
22652;SDS011;11493;43.344;26.226;2022-08-21T11:12:58;10.15;;;4.40;;
22652;SDS011;11493;43.344;26.226;2022-08-21T11:26:57;9.75;;;3.75;;
22652;SDS011;11493;43.344;26.226;2022-08-21T11:29:46;10.45;;;3.60;;
22652;SDS011;11493;43.344;26.226;2022-08-21T11:38:35;6.80;;;3.70;;
22652;SDS011;11493;43.344;26.226;2022-08-21T11:41:25;7.32;;;3.47;;
22652;SDS011;11493;43.344;26.226;2022-08-21T11:47:28;7.10;;;3.28;;
22652;SDS011;11493;43.344;26.226;2022-08-21T11:53:46;31.60;;;13.90;;
22652;SDS011;11493;43.344;26.226;2022-08-21T11:58:38;10.35;;;3.10;;
22652;SDS011;11493;43.344;26.226;2022-08-21T12:01:19;10.13;;;4.13;;
22652;SDS011;11493;43.344;26.226;2022-08-21T12:03:52;8.98;;;3.05;;
22652;SDS011;11493;43.344;26.226;2022-08-21T12:06:34;10.40;;;3.78;;
22652;SDS011;11493;43.344;26.226;2022-08-21T12:09:06;12.68;;;3.45;;
22652;SDS011;11493;43.344;26.226;2022-08-21T12:11:49;4.43;;;3.35;;
22652;SDS011;11493;43.344;26.226;2022-08-21T12:14:18;11.30;;;5.20;;
22652;SDS011;11493;43.344;26.226;2022-08-21T12:16:47;7.18;;;3.78;;
22652;SDS011;11493;43.344;26.226;2022-08-21T12:21:51;6.35;;;3.90;;
22652;SDS011;11493;43.344;26.226;2022-08-21T12:24:20;7.72;;;3.40;;
22652;SDS011;11493;43.344;26.226;2022-08-21T12:32:30;10.10;;;3.50;;
22652;SDS011;11493;43.344;26.226;2022-08-21T12:35:27;9.15;;;3.78;;
22652;SDS011;11493;43.344;26.226;2022-08-21T12:38:22;10.45;;;3.25;;
22652;SDS011;11493;43.344;26.226;2022-08-21T12:41:10;6.25;;;3.40;;
22652;SDS011;11493;43.344;26.226;2022-08-21T12:44:02;12.27;;;3.53;;
22652;SDS011;11493;43.344;26.226;2022-08-21T12:46:56;6.55;;;3.42;;
22652;SDS011;11493;43.344;26.226;2022-08-21T12:49:28;6.75;;;3.70;;
22652;SDS011;11493;43.344;26.226;2022-08-21T12:52:24;6.63;;;3.65;;
22652;SDS011;11493;43.344;26.226;2022-08-21T12:55:05;11.70;;;3.83;;
22652;SDS011;11493;43.344;26.226;2022-08-21T12:57:35;8.57;;;3.80;;
22652;SDS011;11493;43.344;26.226;2022-08-21T13:00:05;10.23;;;3.72;;
22652;SDS011;11493;43.344;26.226;2022-08-21T13:02:39;8.38;;;3.80;;
22652;SDS011;11493;43.344;26.226;2022-08-21T13:05:14;5.28;;;3.97;;
22652;SDS011;11493;43.344;26.226;2022-08-21T13:07:47;7.43;;;4.55;;
22652;SDS011;11493;43.344;26.226;2022-08-21T13:10:20;12.57;;;5.47;;
22652;SDS011;11493;43.344;26.226;2022-08-21T13:12:53;25.63;;;6.53;;
22652;SDS011;11493;43.344;26.226;2022-08-21T13:15:25;25.25;;;6.28;;
22652;SDS011;11493;43.344;26.226;2022-08-21T13:17:59;31.85;;;7.32;;
22652;SDS011;11493;43.344;26.226;2022-08-21T13:20:36;58.90;;;12.75;;
22652;SDS011;11493;43.344;26.226;2022-08-21T13:23:18;42.03;;;10.88;;
22652;SDS011;11493;43.344;26.226;2022-08-21T13:25:51;24.05;;;7.45;;
22652;SDS011;11493;43.344;26.226;2022-08-21T13:28:19;24.50;;;8.32;;
22652;SDS011;11493;43.344;26.226;2022-08-21T13:30:48;21.63;;;7.40;;
22652;SDS011;11493;43.344;26.226;2022-08-21T13:33:21;11.00;;;5.05;;
22652;SDS011;11493;43.344;26.226;2022-08-21T13:36:39;10.60;;;5.45;;
22652;SDS011;11493;43.344;26.226;2022-08-21T13:38:59;20.00;;;7.78;;
22652;SDS011;11493;43.344;26.226;2022-08-21T13:41:28;9.43;;;6.88;;
22652;SDS011;11493;43.344;26.226;2022-08-21T13:43:59;31.15;;;9.70;;
22652;SDS011;11493;43.344;26.226;2022-08-21T13:46:33;11.50;;;6.93;;
22652;SDS011;11493;43.344;26.226;2022-08-21T13:49:03;30.50;;;9.60;;
22652;SDS011;11493;43.344;26.226;2022-08-21T13:51:32;91.13;;;13.43;;
22652;SDS011;11493;43.344;26.226;2022-08-21T13:54:15;36.30;;;16.38;;
22652;SDS011;11493;43.344;26.226;2022-08-21T13:56:47;26.90;;;15.30;;
22652;SDS011;11493;43.344;26.226;2022-08-21T13:59:35;31.05;;;15.20;;
22652;SDS011;11493;43.344;26.226;2022-08-21T14:04:54;15.43;;;10.25;;
22652;SDS011;11493;43.344;26.226;2022-08-21T14:07:34;20.13;;;11.05;;
22652;SDS011;11493;43.344;26.226;2022-08-21T14:10:18;18.20;;;11.10;;
22652;SDS011;11493;43.344;26.226;2022-08-21T14:15:16;12.30;;;8.93;;
22652;SDS011;11493;43.344;26.226;2022-08-21T14:17:45;16.98;;;11.80;;
22652;SDS011;11493;43.344;26.226;2022-08-21T14:20:25;15.13;;;11.25;;
22652;SDS011;11493;43.344;26.226;2022-08-21T14:22:55;14.98;;;11.48;;
22652;SDS011;11493;43.344;26.226;2022-08-21T14:28:23;19.02;;;11.95;;
22652;SDS011;11493;43.344;26.226;2022-08-21T14:30:55;14.25;;;11.05;;
22652;SDS011;11493;43.344;26.226;2022-08-21T14:33:31;16.15;;;10.48;;
22652;SDS011;11493;43.344;26.226;2022-08-21T14:35:59;17.55;;;11.73;;
22652;SDS011;11493;43.344;26.226;2022-08-21T14:38:29;19.48;;;11.77;;
22652;SDS011;11493;43.344;26.226;2022-08-21T14:40:57;19.85;;;12.75;;
22652;SDS011;11493;43.344;26.226;2022-08-21T14:43:27;16.88;;;12.38;;
22652;SDS011;11493;43.344;26.226;2022-08-21T14:45:55;18.63;;;11.98;;
22652;SDS011;11493;43.344;26.226;2022-08-21T14:48:24;15.27;;;10.35;;
22652;SDS011;11493;43.344;26.226;2022-08-21T14:50:51;17.05;;;9.88;;
22652;SDS011;11493;43.344;26.226;2022-08-21T14:53:25;15.98;;;9.88;;
22652;SDS011;11493;43.344;26.226;2022-08-21T14:55:53;17.08;;;10.05;;
22652;SDS011;11493;43.344;26.226;2022-08-21T14:58:37;19.77;;;11.80;;
22652;SDS011;11493;43.344;26.226;2022-08-21T15:01:07;12.82;;;10.35;;
22652;SDS011;11493;43.344;26.226;2022-08-21T15:03:37;13.07;;;11.75;;
22652;SDS011;11493;43.344;26.226;2022-08-21T15:06:05;13.05;;;10.93;;
22652;SDS011;11493;43.344;26.226;2022-08-21T15:08:34;14.13;;;12.40;;
22652;SDS011;11493;43.344;26.226;2022-08-21T15:11:02;15.77;;;12.20;;
22652;SDS011;11493;43.344;26.226;2022-08-21T15:13:40;23.75;;;13.00;;
22652;SDS011;11493;43.344;26.226;2022-08-21T15:16:08;15.25;;;12.55;;
22652;SDS011;11493;43.344;26.226;2022-08-21T15:18:38;18.65;;;12.50;;
22652;SDS011;11493;43.344;26.226;2022-08-21T15:21:06;16.95;;;12.48;;
22652;SDS011;11493;43.344;26.226;2022-08-21T15:23:34;22.77;;;11.93;;
22652;SDS011;11493;43.344;26.226;2022-08-21T15:26:05;14.43;;;11.93;;
22652;SDS011;11493;43.344;26.226;2022-08-21T15:28:34;18.60;;;12.43;;
22652;SDS011;11493;43.344;26.226;2022-08-21T15:31:03;16.20;;;12.70;;
22652;SDS011;11493;43.344;26.226;2022-08-21T15:33:31;16.83;;;11.68;;
22652;SDS011;11493;43.344;26.226;2022-08-21T15:35:59;13.07;;;10.80;;
22652;SDS011;11493;43.344;26.226;2022-08-21T15:38:27;15.48;;;11.85;;
22652;SDS011;11493;43.344;26.226;2022-08-21T15:40:54;24.10;;;16.33;;
22652;SDS011;11493;43.344;26.226;2022-08-21T15:43:23;24.27;;;15.07;;
22652;SDS011;11493;43.344;26.226;2022-08-21T15:45:58;17.58;;;12.90;;
22652;SDS011;11493;43.344;26.226;2022-08-21T15:48:26;20.90;;;11.68;;
22652;SDS011;11493;43.344;26.226;2022-08-21T15:50:54;14.75;;;10.32;;
22652;SDS011;11493;43.344;26.226;2022-08-21T15:53:22;12.68;;;8.43;;
22652;SDS011;11493;43.344;26.226;2022-08-21T15:55:49;10.55;;;7.53;;
22652;SDS011;11493;43.344;26.226;2022-08-21T15:58:17;13.20;;;8.05;;
22652;SDS011;11493;43.344;26.226;2022-08-21T16:00:47;9.80;;;8.00;;
22652;SDS011;11493;43.344;26.226;2022-08-21T16:03:15;11.63;;;8.13;;
22652;SDS011;11493;43.344;26.226;2022-08-21T16:05:47;9.57;;;8.40;;
22652;SDS011;11493;43.344;26.226;2022-08-21T16:08:16;10.07;;;8.80;;
22652;SDS011;11493;43.344;26.226;2022-08-21T16:10:48;12.30;;;8.38;;
22652;SDS011;11493;43.344;26.226;2022-08-21T16:13:28;12.30;;;8.75;;
22652;SDS011;11493;43.344;26.226;2022-08-21T16:16:00;16.42;;;9.52;;
22652;SDS011;11493;43.344;26.226;2022-08-21T16:18:28;13.27;;;11.93;;
22652;SDS011;11493;43.344;26.226;2022-08-21T16:20:55;25.40;;;12.43;;
22652;SDS011;11493;43.344;26.226;2022-08-21T16:23:41;12.65;;;8.80;;
22652;SDS011;11493;43.344;26.226;2022-08-21T16:26:12;24.92;;;22.17;;
22652;SDS011;11493;43.344;26.226;2022-08-21T16:28:44;34.67;;;31.33;;
22652;SDS011;11493;43.344;26.226;2022-08-21T16:31:13;42.95;;;35.80;;
22652;SDS011;11493;43.344;26.226;2022-08-21T16:33:42;16.55;;;12.60;;